Datos. Zumaia

Actualizado: lunes, 24 noviembre 2014 a las 01:32 hora oficial
Ind. climatológico: 1041A -  Altitud (m): 28
Latitud43° 18' 8'' N - Longitud2° 15' 4'' O -  PosiciónVer localización
MunicipioZumaia (Gipuzkoa) - Ver predicción
Registros - de
Fecha y hora oficial

 

Temp. (°C)

 

V. vien. (km/h)

 

Dir. viento

 

Racha (km/h)

 

Dir. racha

 

Prec. (mm)

 

Presión (hPa)

 

Tend. (hPa)

 

Humedad (%)

 

24/11/2014 01:00 15.4 13 9-NoroesteNoroeste 22 9-NoroesteNoroeste 0.0     93
24/11/2014 00:00 15.6 12 9-NoroesteNoroeste 24 9-NoroesteNoroeste 0.0     93
23/11/2014 23:00 15.1 3 8-OesteOeste 9 6-SurSur 0.0     93
23/11/2014 22:00 14.8 7 6-SurSur 9 6-SurSur 0.0     93
23/11/2014 21:00 15.2 5 7-SudoesteSudoeste 9 6-SurSur 0.0     93
23/11/2014 20:00 15.3 2 6-SurSur 7 6-SurSur 0.0     93
23/11/2014 19:00 15.9 3 9-NoroesteNoroeste 14 8-OesteOeste 0.0     93
23/11/2014 18:00 15.8 10 9-NoroesteNoroeste 27 8-OesteOeste 0.0     93
23/11/2014 17:00 15.9 13 9-NoroesteNoroeste 35 9-NoroesteNoroeste 0.0     92
23/11/2014 16:00 16.5 17 9-NoroesteNoroeste 41 9-NoroesteNoroeste 0.0     92
23/11/2014 15:00 23.2 9 6-SurSur 46 6-SurSur 0.0     44
23/11/2014 14:00 23.5 19 6-SurSur 40 7-SudoesteSudoeste 0.0     42
23/11/2014 13:00 23.1 20 6-SurSur 32 6-SurSur 0.0     44
23/11/2014 12:00 21.9 12 6-SurSur 33 6-SurSur 0.0     47
23/11/2014 11:00 21.3 22 6-SurSur 41 6-SurSur 0.0     50
23/11/2014 10:00 20.2 12 6-SurSur 33 6-SurSur 0.0     52
23/11/2014 09:00 19.9 20 6-SurSur 39 6-SurSur 0.0     51
23/11/2014 08:00 19.4 24 6-SurSur 48 6-SurSur 0.0     54
23/11/2014 07:00 19.2 14 6-SurSur 26 6-SurSur 0.0     57
23/11/2014 06:00 19.2 11 6-SurSur 36 6-SurSur 0.0     59
23/11/2014 05:00 19.1 18 6-SurSur 38 6-SurSur 0.0     60
23/11/2014 04:00 19.4 10 6-SurSur 29 6-SurSur 0.0     60
23/11/2014 03:00 19.8 8 7-SudoesteSudoeste 36 6-SurSur 0.0     61
23/11/2014 02:00 19.7 17 6-SurSur 34 6-SurSur 0.0     62
First Page First Page First Page Last Page
Lineas por página
Página   de  
Compartir:  
En esta página podrá acceder, en forma gráfica y en tabla, a las observaciones horarias de las últimas 24 horas, así como a los valores extremos y acumulados desde las 00 horas del día hasta la hora de actualización indicada, obtenidos en la red de estaciones de AEMET. También podrá acceder a los resúmenes diarios de estas estaciones en los últimos 7 días.

En el mapa aparecen estaciones con valor númerico y otras representadas por un punto. En las primeras, al pasar el ratón, aparece un desplegable con la información completa de la estación. Las estaciones representadas por un punto son estaciones de la red climatológica, con transmisión de datos superior a la hora, por lo que al seleccionarlas pueden no aparecer los últimos datos.

Los datos presentados han sido únicamente sometidos a controles automáticos de calidad en tiempo real, por lo que no puede garantizarse la ausencia de errores.
© AEMET. Autorizado el uso de la información y su reproducción citando a AEMET como autora de la misma.